createdAt,value
2023-01-01T00:01:10.477Z,12.57
2023-01-01T00:03:39.430Z,11.63
2023-01-01T00:06:07.900Z,9.95
2023-01-01T00:08:37.069Z,12.52
2023-01-01T00:11:05.749Z,15.18
2023-01-01T00:13:33.676Z,12.40
2023-01-01T00:16:05.700Z,11.88
2023-01-01T00:18:33.347Z,9.33
2023-01-01T00:21:05.179Z,17.60
2023-01-01T00:23:32.972Z,13.35
2023-01-01T00:26:02.314Z,17.48
2023-01-01T00:28:30.058Z,16.00
2023-01-01T00:30:57.610Z,12.45
2023-01-01T00:33:25.196Z,16.27
2023-01-01T00:35:52.933Z,18.40
2023-01-01T00:38:20.496Z,17.05
2023-01-01T00:40:48.204Z,21.80
2023-01-01T00:43:17.093Z,15.85
2023-01-01T00:45:47.826Z,16.73
2023-01-01T00:48:15.586Z,19.92
2023-01-01T00:50:43.139Z,24.85
2023-01-01T00:53:10.734Z,11.38
2023-01-01T00:55:40.338Z,17.10
2023-01-01T00:58:08.099Z,18.10
2023-01-01T01:00:37.349Z,22.23
2023-01-01T01:03:05.564Z,16.50
2023-01-01T01:05:34.168Z,11.30
2023-01-01T01:08:01.902Z,17.80
2023-01-01T01:10:29.712Z,19.30
2023-01-01T01:12:57.269Z,15.90
2023-01-01T01:15:24.968Z,13.77
2023-01-01T01:17:53.921Z,11.35
2023-01-01T01:20:21.473Z,15.07
2023-01-01T01:22:49.149Z,12.98
2023-01-01T01:25:16.957Z,17.38
2023-01-01T01:27:44.491Z,18.20
2023-01-01T01:30:12.800Z,9.93
2023-01-01T01:32:40.343Z,9.05
2023-01-01T01:35:10.492Z,18.85
2023-01-01T01:37:38.220Z,20.55
2023-01-01T01:40:06.920Z,14.48
2023-01-01T01:42:34.439Z,17.77
2023-01-01T01:45:03.701Z,12.30
2023-01-01T01:47:35.609Z,15.23
2023-01-01T01:50:08.130Z,14.40
2023-01-01T01:52:40.049Z,15.27
2023-01-01T01:55:09.606Z,10.57
2023-01-01T01:57:38.268Z,15.07
2023-01-01T02:00:10.857Z,9.95
2023-01-01T02:02:41.482Z,16.52
2023-01-01T02:05:09.736Z,13.50
2023-01-01T02:07:39.156Z,11.75
2023-01-01T02:10:07.349Z,13.98
2023-01-01T02:12:34.927Z,14.07
2023-01-01T02:15:03.574Z,12.18
2023-01-01T02:17:38.772Z,20.90
2023-01-01T02:20:23.116Z,12.70
2023-01-01T02:23:24.197Z,11.73
2023-01-01T02:26:13.012Z,10.13
2023-01-01T02:28:54.184Z,10.95
2023-01-01T02:31:27.045Z,11.43
2023-01-01T02:33:56.415Z,7.55
2023-01-01T02:36:25.213Z,12.68
2023-01-01T02:38:54.569Z,7.33
2023-01-01T02:41:24.690Z,7.63
2023-01-01T02:43:54.384Z,9.93
2023-01-01T02:48:49.824Z,9.90
2023-01-01T02:51:24.003Z,5.30
2023-01-01T02:53:59.376Z,10.97
2023-01-01T02:56:36.192Z,5.77
2023-01-01T02:59:32.611Z,9.25
2023-01-01T03:02:04.939Z,5.63
2023-01-01T03:04:37.897Z,5.68
2023-01-01T03:07:12.614Z,7.85
2023-01-01T03:09:44.978Z,9.27
2023-01-01T03:12:19.912Z,7.45
2023-01-01T03:14:53.065Z,5.95
2023-01-01T03:17:27.269Z,10.65
2023-01-01T03:19:56.561Z,12.88
2023-01-01T03:22:26.974Z,8.18
2023-01-01T03:24:56.436Z,9.77
2023-01-01T03:27:27.019Z,6.18
2023-01-01T03:29:58.362Z,12.45
2023-01-01T03:32:49.478Z,7.95
2023-01-01T03:35:19.723Z,10.73
2023-01-01T03:37:48.151Z,10.20
2023-01-01T03:40:16.307Z,10.60
2023-01-01T03:42:47.247Z,4.93
2023-01-01T03:45:19.738Z,5.28
2023-01-01T03:47:47.690Z,8.82
2023-01-01T03:50:15.993Z,7.27
2023-01-01T03:52:47.557Z,4.03
2023-01-01T03:55:19.391Z,5.30
2023-01-01T03:57:51.892Z,6.43
2023-01-01T04:00:22.660Z,6.95
2023-01-01T04:02:53.835Z,6.18
2023-01-01T04:05:21.778Z,7.82
2023-01-01T04:10:20.449Z,6.05
2023-01-01T04:12:49.693Z,5.20
2023-01-01T04:15:18.398Z,5.32
2023-01-01T04:17:47.692Z,6.87
2023-01-01T04:20:16.279Z,4.70
2023-01-01T04:22:44.263Z,9.07
2023-01-01T04:25:12.869Z,6.53
2023-01-01T04:27:41.145Z,3.13
2023-01-01T04:30:11.826Z,5.97
2023-01-01T04:32:39.641Z,5.18
2023-01-01T04:35:12.148Z,6.38
2023-01-01T04:37:40.261Z,6.20
2023-01-01T04:40:09.650Z,5.67
2023-01-01T04:42:37.631Z,4.40
2023-01-01T04:45:05.879Z,4.57
2023-01-01T04:47:33.645Z,3.70
2023-01-01T04:50:01.396Z,3.45
2023-01-01T04:52:30.342Z,9.77
2023-01-01T04:54:57.874Z,4.13
2023-01-01T04:57:25.458Z,5.57
2023-01-01T04:59:53.050Z,5.53
2023-01-01T05:02:20.738Z,7.93
2023-01-01T05:04:48.576Z,9.68
2023-01-01T05:07:16.256Z,3.70
2023-01-01T05:09:45.156Z,5.18
2023-01-01T05:12:12.884Z,7.30
2023-01-01T05:14:40.669Z,4.65
2023-01-01T05:17:08.396Z,3.10
2023-01-01T05:19:35.968Z,8.18
2023-01-01T05:22:10.251Z,5.13
2023-01-01T05:24:38.457Z,6.22
2023-01-01T05:27:07.552Z,11.38
2023-01-01T05:29:35.189Z,4.88
2023-01-01T05:32:02.804Z,4.50
2023-01-01T05:36:57.037Z,7.97
2023-01-01T05:39:24.758Z,10.10
2023-01-01T05:41:52.405Z,4.75
2023-01-01T05:44:24.607Z,5.93
2023-01-01T05:46:52.151Z,5.43
2023-01-01T05:49:19.715Z,6.50
2023-01-01T05:51:47.455Z,6.28
2023-01-01T05:56:41.646Z,11.90
2023-01-01T05:59:11.016Z,4.05
2023-01-01T06:01:45.452Z,5.05
2023-01-01T06:04:14.437Z,5.05
2023-01-01T06:06:42.128Z,4.50
2023-01-01T06:09:11.249Z,6.60
2023-01-01T06:11:38.969Z,7.38
2023-01-01T06:14:06.935Z,5.47
2023-01-01T06:16:35.309Z,8.82
2023-01-01T06:19:04.838Z,7.05
2023-01-01T06:21:32.587Z,6.10
2023-01-01T06:24:00.904Z,5.63
2023-01-01T06:26:30.138Z,5.18
2023-01-01T06:28:58.131Z,7.15
2023-01-01T06:31:27.452Z,6.03
2023-01-01T06:33:55.516Z,5.78
2023-01-01T06:36:25.964Z,4.55
2023-01-01T06:38:55.808Z,4.22
2023-01-01T06:41:24.883Z,4.47
2023-01-01T06:43:52.631Z,10.63
2023-01-01T06:46:21.791Z,5.78
2023-01-01T06:48:50.277Z,6.85
2023-01-01T06:51:19.241Z,5.80
2023-01-01T06:53:49.026Z,4.78
2023-01-01T06:56:16.663Z,7.28
2023-01-01T06:58:44.552Z,7.65
2023-01-01T07:01:14.313Z,6.50
2023-01-01T07:03:42.970Z,8.23
2023-01-01T07:06:11.573Z,3.75
2023-01-01T07:08:39.299Z,9.65
2023-01-01T07:11:08.288Z,4.40
2023-01-01T07:13:35.928Z,5.30
2023-01-01T07:16:10.187Z,3.43
2023-01-01T07:18:40.123Z,6.57
2023-01-01T07:21:08.997Z,6.85
2023-01-01T07:23:36.735Z,8.55
2023-01-01T07:26:04.347Z,5.60
2023-01-01T07:28:33.418Z,2.87
2023-01-01T07:31:01.030Z,5.55
2023-01-01T07:33:28.569Z,5.25
2023-01-01T07:35:56.196Z,4.85
2023-01-01T07:38:23.984Z,6.95
2023-01-01T07:40:51.560Z,6.13
2023-01-01T07:43:19.092Z,7.57
2023-01-01T07:45:48.124Z,6.57
2023-01-01T07:48:16.421Z,4.38
2023-01-01T07:50:44.716Z,5.90
2023-01-01T07:53:12.673Z,6.18
2023-01-01T07:55:40.337Z,8.07
2023-01-01T07:58:07.945Z,8.93
2023-01-01T08:00:35.582Z,9.52
2023-01-01T08:03:04.900Z,7.50
2023-01-01T08:05:34.143Z,7.65
2023-01-01T08:08:01.847Z,7.72
2023-01-01T08:10:29.708Z,5.57
2023-01-01T08:13:01.040Z,9.80
2023-01-01T08:15:28.792Z,10.32
2023-01-01T08:17:59.763Z,12.73
2023-01-01T08:20:30.012Z,6.20
2023-01-01T08:23:02.967Z,8.57
2023-01-01T08:25:34.166Z,5.40
2023-01-01T08:28:01.686Z,11.25
2023-01-01T08:30:29.413Z,13.45
2023-01-01T08:32:57.185Z,9.43
2023-01-01T08:35:24.904Z,9.27
2023-01-01T08:37:54.048Z,6.72
2023-01-01T08:40:21.747Z,9.10
2023-01-01T08:42:49.316Z,7.07
2023-01-01T08:45:17.075Z,6.73
2023-01-01T08:47:44.913Z,4.35
2023-01-01T08:50:14.426Z,2.80
2023-01-01T08:52:41.945Z,6.13
2023-01-01T08:55:12.004Z,4.82
2023-01-01T08:57:39.539Z,7.05
2023-01-01T09:00:09.730Z,1.27
2023-01-01T09:02:37.447Z,0.77
2023-01-01T09:05:05.751Z,1.73
2023-01-01T09:07:33.307Z,2.42
2023-01-01T09:10:01.023Z,5.78
2023-01-01T09:12:30.094Z,2.28
2023-01-01T09:14:57.670Z,5.00
2023-01-01T09:17:25.252Z,3.20
2023-01-01T09:19:52.941Z,3.53
2023-01-01T09:22:20.519Z,2.40
2023-01-01T09:24:48.073Z,0.40
2023-01-01T09:27:15.753Z,0.00
2023-01-01T09:29:44.810Z,0.00
2023-01-01T09:32:12.545Z,0.00
2023-01-01T09:34:40.117Z,0.10
2023-01-01T09:37:07.823Z,0.10
2023-01-01T09:39:35.597Z,0.00
2023-01-01T09:42:14.668Z,0.00
2023-01-01T09:44:55.721Z,0.00
2023-01-01T09:47:27.036Z,0.00
2023-01-01T09:49:55.977Z,0.10
2023-01-01T09:52:23.815Z,0.50
2023-01-01T09:54:53.781Z,0.50
2023-01-01T09:57:25.089Z,0.00
2023-01-01T09:59:54.449Z,0.00
2023-01-01T10:02:34.047Z,0.00
2023-01-01T10:05:05.503Z,0.28
2023-01-01T10:07:39.411Z,0.20
2023-01-01T10:10:18.762Z,0.70
2023-01-01T10:12:50.775Z,1.10
2023-01-01T10:15:23.124Z,0.05
2023-01-01T10:17:53.354Z,7.28
2023-01-01T10:20:23.190Z,0.00
2023-01-01T10:22:54.551Z,0.00
2023-01-01T10:25:24.348Z,0.10
2023-01-01T10:27:59.208Z,1.30
2023-01-01T10:30:29.829Z,0.00
2023-01-01T10:32:58.202Z,0.10
2023-01-01T10:35:31.196Z,0.00
2023-01-01T10:38:00.124Z,0.00
2023-01-01T10:40:29.508Z,0.68
2023-01-01T10:42:58.305Z,0.00
2023-01-01T10:45:31.867Z,0.00
2023-01-01T10:48:14.777Z,0.20
2023-01-01T10:50:44.687Z,0.00
2023-01-01T10:53:27.856Z,0.00
2023-01-01T10:56:03.753Z,0.10
2023-01-01T10:58:37.883Z,0.00
2023-01-01T11:01:08.408Z,0.10
2023-01-01T11:03:36.359Z,1.40
2023-01-01T11:06:06.279Z,0.00
2023-01-01T11:08:35.789Z,0.10
2023-01-01T11:11:04.318Z,0.00
2023-01-01T11:13:32.462Z,0.10
2023-01-01T11:16:00.454Z,1.40
2023-01-01T11:18:36.036Z,0.05
2023-01-01T11:21:05.800Z,0.30
2023-01-01T11:23:35.183Z,0.90
2023-01-01T11:26:08.220Z,0.15
2023-01-01T11:28:37.171Z,0.00
2023-01-01T11:31:07.726Z,0.00
2023-01-01T11:33:39.239Z,0.85
2023-01-01T11:36:07.979Z,0.00
2023-01-01T11:38:35.457Z,0.20
2023-01-01T11:41:05.458Z,0.22
2023-01-01T11:43:39.342Z,0.93
2023-01-01T11:46:09.404Z,0.03
2023-01-01T11:48:42.622Z,0.10
2023-01-01T11:51:12.522Z,0.10
2023-01-01T11:53:41.991Z,0.00
2023-01-01T11:56:13.966Z,0.00
2023-01-01T11:58:48.172Z,0.10
2023-01-01T12:01:20.865Z,0.10
2023-01-01T12:03:54.023Z,2.90
2023-01-01T12:06:25.609Z,0.10
2023-01-01T12:08:57.570Z,0.00
2023-01-01T12:11:28.115Z,0.05
2023-01-01T12:14:00.576Z,0.90
2023-01-01T12:16:47.425Z,0.00
2023-01-01T12:19:20.042Z,0.10
2023-01-01T12:21:52.767Z,0.50
2023-01-01T12:24:21.283Z,0.20
2023-01-01T12:26:59.021Z,0.00
2023-01-01T12:29:48.834Z,1.60
2023-01-01T12:32:21.736Z,0.30
2023-01-01T12:34:57.297Z,0.60
2023-01-01T12:37:34.907Z,1.00
2023-01-01T12:40:30.420Z,0.00
2023-01-01T12:43:02.584Z,0.00
2023-01-01T12:46:11.691Z,0.00
2023-01-01T12:48:50.179Z,6.30
2023-01-01T12:51:29.943Z,1.00
2023-01-01T12:54:28.335Z,2.90
2023-01-01T12:57:01.870Z,0.13
2023-01-01T12:59:31.524Z,0.08
2023-01-01T13:02:01.631Z,0.00
2023-01-01T13:04:29.463Z,0.05
2023-01-01T13:07:05.565Z,0.30
2023-01-01T13:09:36.022Z,2.20
2023-01-01T13:12:07.201Z,5.70
2023-01-01T13:14:39.293Z,2.70
2023-01-01T13:17:19.932Z,0.20
2023-01-01T13:19:47.749Z,0.00
2023-01-01T13:22:44.097Z,0.60
2023-01-01T13:25:21.437Z,0.00
2023-01-01T13:28:13.438Z,0.00
2023-01-01T13:30:51.251Z,0.00
2023-01-01T13:33:26.004Z,1.10
2023-01-01T13:36:31.559Z,1.00
2023-01-01T13:39:01.033Z,0.00
2023-01-01T13:41:35.391Z,0.22
2023-01-01T13:44:20.191Z,0.00
2023-01-01T13:46:56.872Z,0.08
2023-01-01T13:49:32.222Z,0.05
2023-01-01T13:52:23.750Z,1.42
2023-01-01T13:55:29.948Z,0.70
2023-01-01T13:58:16.021Z,1.88
2023-01-01T14:00:54.626Z,2.70
2023-01-01T14:03:22.689Z,0.30
2023-01-01T14:05:52.028Z,0.80
2023-01-01T14:08:29.484Z,0.30
2023-01-01T14:11:00.784Z,0.03
2023-01-01T14:13:32.402Z,0.00
2023-01-01T14:16:01.334Z,0.00
2023-01-01T14:18:33.843Z,0.00
2023-01-01T14:21:01.588Z,0.60
2023-01-01T14:23:32.744Z,0.00
2023-01-01T14:26:04.795Z,0.00
2023-01-01T14:28:33.466Z,0.00
2023-01-01T14:31:08.704Z,0.10
2023-01-01T14:33:38.990Z,0.05
2023-01-01T14:36:14.839Z,1.40
2023-01-01T14:38:45.439Z,0.00
2023-01-01T14:41:18.676Z,0.00
2023-01-01T14:43:47.533Z,0.70
2023-01-01T14:46:17.354Z,0.20
2023-01-01T14:48:46.348Z,0.00
2023-01-01T14:51:15.953Z,0.30
2023-01-01T14:53:44.381Z,0.00
2023-01-01T14:56:11.960Z,0.10
2023-01-01T14:58:41.833Z,0.55
2023-01-01T15:01:16.558Z,0.80
2023-01-01T15:03:59.756Z,0.00
2023-01-01T15:06:27.514Z,0.00
2023-01-01T15:08:55.150Z,0.10
2023-01-01T15:11:28.463Z,0.38
2023-01-01T15:14:00.356Z,0.00
2023-01-01T15:16:30.232Z,0.00
2023-01-01T15:18:59.695Z,1.20
2023-01-01T15:21:37.325Z,0.10
2023-01-01T15:24:10.192Z,0.30
2023-01-01T15:26:42.434Z,0.15
2023-01-01T15:29:13.121Z,0.10
2023-01-01T15:31:43.488Z,0.00
2023-01-01T15:34:24.208Z,0.40
2023-01-01T15:36:53.485Z,0.00
2023-01-01T15:39:21.900Z,0.30
2023-01-01T15:41:50.864Z,0.00
2023-01-01T15:44:28.320Z,0.00
2023-01-01T15:47:05.899Z,0.20
2023-01-01T15:49:34.443Z,0.20
2023-01-01T15:52:05.490Z,0.00
2023-01-01T15:54:36.211Z,0.00
2023-01-01T15:57:03.992Z,0.00
2023-01-01T15:59:36.823Z,0.30
2023-01-01T16:02:08.785Z,3.30
2023-01-01T16:04:37.489Z,0.73
2023-01-01T16:07:05.125Z,0.65
2023-01-01T16:09:34.289Z,0.00
2023-01-01T16:12:01.941Z,0.00
2023-01-01T16:14:29.637Z,0.00
2023-01-01T16:17:00.825Z,0.30
2023-01-01T16:19:30.296Z,0.20
2023-01-01T16:21:57.860Z,0.00
2023-01-01T16:24:25.655Z,0.00
2023-01-01T16:26:53.664Z,1.50
2023-01-01T16:29:21.315Z,0.00
2023-01-01T16:31:49.205Z,0.30
2023-01-01T16:34:18.389Z,0.10
2023-01-01T16:36:46.327Z,0.30
2023-01-01T16:39:14.046Z,0.00
2023-01-01T16:41:42.600Z,0.00
2023-01-01T16:44:12.436Z,0.00
2023-01-01T16:46:40.290Z,0.00
2023-01-01T16:49:07.868Z,0.25
2023-01-01T16:51:40.620Z,0.70
2023-01-01T16:54:10.918Z,0.00
2023-01-01T16:56:38.688Z,0.00
2023-01-01T16:59:06.408Z,1.90
2023-01-01T17:01:34.238Z,0.20
2023-01-01T17:04:02.144Z,0.00
2023-01-01T17:06:29.866Z,0.20
2023-01-01T17:08:59.774Z,0.00
2023-01-01T17:11:27.500Z,0.00
2023-01-01T17:13:55.212Z,0.00
2023-01-01T17:16:27.912Z,0.00
2023-01-01T17:21:44.613Z,0.00
2023-01-01T17:24:13.972Z,0.30
2023-01-01T17:26:41.791Z,0.00
2023-01-01T17:29:09.609Z,0.32
2023-01-01T17:31:37.732Z,0.00
2023-01-01T17:34:05.559Z,0.00
2023-01-01T17:36:33.250Z,0.00
2023-01-01T17:39:00.982Z,0.30
2023-01-01T17:41:29.890Z,0.10
2023-01-01T17:43:58.019Z,0.20
2023-01-01T17:46:28.216Z,0.23
2023-01-01T17:48:56.547Z,0.00
2023-01-01T17:51:24.492Z,0.00
2023-01-01T17:53:52.183Z,0.00
2023-01-01T17:56:22.301Z,0.00
2023-01-01T17:58:52.849Z,0.00
2023-01-01T18:01:32.196Z,0.00
2023-01-01T18:04:00.795Z,0.22
2023-01-01T18:06:29.113Z,1.00
2023-01-01T18:08:57.390Z,0.00
2023-01-01T18:11:25.339Z,0.20
2023-01-01T18:13:54.443Z,0.40
2023-01-01T18:16:22.284Z,0.00
2023-01-01T18:18:49.879Z,0.30
2023-01-01T18:21:21.917Z,0.80
2023-01-01T18:23:50.820Z,0.25
2023-01-01T18:26:18.963Z,0.80
2023-01-01T18:28:46.779Z,2.45
2023-01-01T18:31:17.125Z,0.20
2023-01-01T18:33:46.885Z,0.00
2023-01-01T18:36:16.661Z,0.10
2023-01-01T18:38:45.826Z,0.00
2023-01-01T18:41:26.284Z,1.80
2023-01-01T18:43:53.877Z,0.20
2023-01-01T18:46:23.432Z,1.05
2023-01-01T18:48:57.039Z,0.00
2023-01-01T18:51:26.512Z,0.00
2023-01-01T18:53:57.063Z,0.00
2023-01-01T18:56:25.025Z,0.90
2023-01-01T18:58:52.869Z,0.20
2023-01-01T19:01:23.479Z,0.00
2023-01-01T19:03:52.849Z,2.30
2023-01-01T19:06:27.259Z,0.00
2023-01-01T19:09:00.859Z,0.20
2023-01-01T19:11:28.559Z,3.78
2023-01-01T19:14:02.480Z,0.10
2023-01-01T19:16:33.090Z,0.10
2023-01-01T19:19:09.861Z,1.27
2023-01-01T19:21:37.595Z,0.15
2023-01-01T19:24:13.028Z,0.30
2023-01-01T19:26:40.981Z,0.30
2023-01-01T19:29:15.280Z,3.00
2023-01-01T19:31:44.478Z,0.00
2023-01-01T19:34:12.178Z,0.00
2023-01-01T19:36:39.966Z,0.35
2023-01-01T19:39:08.189Z,0.00
2023-01-01T19:41:36.172Z,0.30
2023-01-01T19:44:08.623Z,0.00
2023-01-01T19:46:37.629Z,0.00
2023-01-01T19:49:06.581Z,0.00
2023-01-01T19:51:34.179Z,0.00
2023-01-01T19:54:01.762Z,1.60
2023-01-01T19:56:29.492Z,0.00
2023-01-01T19:58:57.073Z,0.00
2023-01-01T20:01:24.738Z,0.00
2023-01-01T20:03:54.725Z,0.00
2023-01-01T20:06:25.003Z,0.00
2023-01-01T20:08:52.887Z,0.00
2023-01-01T20:11:20.557Z,0.00
2023-01-01T20:13:48.306Z,0.20
2023-01-01T20:16:16.156Z,3.60
2023-01-01T20:18:43.995Z,0.00
2023-01-01T20:21:29.047Z,0.13
2023-01-01T20:23:57.890Z,0.00
2023-01-01T20:26:26.047Z,0.20
2023-01-01T20:29:11.451Z,0.47
2023-01-01T20:31:39.279Z,2.70
2023-01-01T20:34:06.930Z,0.00
2023-01-01T20:36:52.173Z,0.00
2023-01-01T20:39:24.544Z,1.70
2023-01-01T20:41:52.291Z,0.00
2023-01-01T20:44:20.166Z,0.10
2023-01-01T20:46:48.377Z,0.10
2023-01-01T20:49:17.151Z,0.00
2023-01-01T20:51:44.981Z,0.00
2023-01-01T20:54:12.734Z,0.00
2023-01-01T20:56:41.778Z,0.00
2023-01-01T20:59:33.568Z,0.30
2023-01-01T21:01:57.075Z,0.52
2023-01-01T21:04:24.725Z,0.28
2023-01-01T21:06:52.647Z,0.00
2023-01-01T21:09:20.428Z,0.80
2023-01-01T21:11:49.425Z,0.65
2023-01-01T21:14:17.150Z,0.10
2023-01-01T21:16:46.108Z,0.00
2023-01-01T21:19:13.764Z,0.00
2023-01-01T21:21:45.131Z,0.00
2023-01-01T21:24:20.870Z,0.30
2023-01-01T21:26:51.383Z,0.22
2023-01-01T21:29:21.260Z,0.10
2023-01-01T21:31:52.095Z,0.00
2023-01-01T21:34:24.666Z,0.00
2023-01-01T21:36:52.204Z,4.00
2023-01-01T21:39:24.683Z,0.20
2023-01-01T21:41:53.752Z,0.80
2023-01-01T21:44:21.848Z,0.10
2023-01-01T21:46:54.242Z,0.15
2023-01-01T21:49:31.793Z,5.70
2023-01-01T21:52:00.096Z,1.30
2023-01-01T21:54:31.651Z,0.00
2023-01-01T21:57:01.963Z,0.00
2023-01-01T21:59:37.274Z,0.10
2023-01-01T22:02:39.062Z,0.00
2023-01-01T22:05:30.782Z,0.30
2023-01-01T22:07:59.434Z,0.00
2023-01-01T22:10:35.935Z,1.08
2023-01-01T22:13:15.116Z,0.23
2023-01-01T22:15:43.089Z,0.07
2023-01-01T22:18:21.001Z,0.30
2023-01-01T22:20:49.189Z,0.00
2023-01-01T22:23:38.735Z,0.50
2023-01-01T22:26:16.462Z,0.10
2023-01-01T22:28:46.886Z,0.00
2023-01-01T22:31:19.595Z,0.08
2023-01-01T22:33:48.107Z,0.10
2023-01-01T22:36:17.510Z,0.20
2023-01-01T22:38:45.466Z,0.20
2023-01-01T22:41:13.516Z,0.10
2023-01-01T22:43:43.219Z,0.30
2023-01-01T22:46:21.552Z,0.95
2023-01-01T22:48:57.257Z,0.00
2023-01-01T22:51:28.231Z,0.13
2023-01-01T22:53:55.932Z,0.00
2023-01-01T22:56:23.638Z,2.15
2023-01-01T22:58:56.682Z,5.00
2023-01-01T23:01:26.286Z,0.22
2023-01-01T23:03:54.232Z,0.10
2023-01-01T23:06:23.046Z,0.00
2023-01-01T23:08:50.842Z,0.60
2023-01-01T23:11:18.895Z,0.00
2023-01-01T23:14:07.371Z,0.25
2023-01-01T23:16:36.713Z,0.10
2023-01-01T23:19:05.194Z,0.30
2023-01-01T23:21:33.608Z,0.10
2023-01-01T23:24:02.759Z,0.20
2023-01-01T23:26:30.653Z,1.60
2023-01-01T23:28:58.386Z,2.45
2023-01-01T23:31:27.797Z,0.00
2023-01-01T23:33:58.253Z,3.40
2023-01-01T23:36:26.522Z,0.00
2023-01-01T23:38:54.432Z,1.05
2023-01-01T23:41:22.551Z,0.52
2023-01-01T23:43:50.539Z,3.50
2023-01-01T23:46:19.076Z,0.20
2023-01-01T23:48:47.377Z,0.30
2023-01-01T23:51:17.464Z,0.20
2023-01-01T23:53:45.063Z,0.60
2023-01-01T23:56:15.708Z,1.20
2023-01-01T23:58:43.468Z,0.10
